Weather at Kopitnari Airport

Public forecast

Using degrees Celsius for public forecast. Weather courtesy of forecast.io.

Current aviation weather report (METAR) for Kopitnari Airport

Retrieved 2021/04/16 17:00 UTC (8 minutes ago):

UGKO 161700Z 27013KT CAVOK 15/11 Q1017 NOSIG

Aviation forecast (TAF) for Kopitnari Airport

Retrieved 2021/04/16 12:00 UTC (5 hours ago):

TAF UGKO 161100Z 1612/1712 25006KT CAVOK TX26/1612Z TN10/1703Z BECMG 1618/1620 SCT033 OVC060 TEMPO 1618/1622 08010KT TEMPO 1701/1705 SHRA BKN020CB